sensor_id;sensor_type;location;lat;lon;timestamp;P1;durP1;ratioP1;P2;durP2;ratioP2
19165;SDS011;9715;48.816;10.520;2022-07-29T00:00:20;4.88;;;3.50;;
19165;SDS011;9715;48.816;10.520;2022-07-29T00:02:50;5.53;;;3.20;;
19165;SDS011;9715;48.816;10.520;2022-07-29T00:05:18;8.15;;;3.30;;
19165;SDS011;9715;48.816;10.520;2022-07-29T00:07:46;6.07;;;2.83;;
19165;SDS011;9715;48.816;10.520;2022-07-29T00:10:14;3.60;;;2.72;;
19165;SDS011;9715;48.816;10.520;2022-07-29T00:12:42;3.78;;;2.85;;
19165;SDS011;9715;48.816;10.520;2022-07-29T00:15:10;3.47;;;2.28;;
19165;SDS011;9715;48.816;10.520;2022-07-29T00:17:38;3.75;;;2.20;;
19165;SDS011;9715;48.816;10.520;2022-07-29T00:20:09;3.00;;;2.70;;
19165;SDS011;9715;48.816;10.520;2022-07-29T00:22:37;2.92;;;2.40;;
19165;SDS011;9715;48.816;10.520;2022-07-29T00:25:06;4.40;;;2.70;;
19165;SDS011;9715;48.816;10.520;2022-07-29T00:27:35;3.63;;;2.58;;
19165;SDS011;9715;48.816;10.520;2022-07-29T00:30:04;2.55;;;2.33;;
19165;SDS011;9715;48.816;10.520;2022-07-29T00:32:33;3.22;;;2.40;;
19165;SDS011;9715;48.816;10.520;2022-07-29T00:35:01;3.10;;;2.28;;
19165;SDS011;9715;48.816;10.520;2022-07-29T00:37:49;2.83;;;2.30;;
19165;SDS011;9715;48.816;10.520;2022-07-29T00:40:17;3.50;;;2.17;;
19165;SDS011;9715;48.816;10.520;2022-07-29T00:42:49;2.83;;;2.42;;
19165;SDS011;9715;48.816;10.520;2022-07-29T00:45:17;3.85;;;2.50;;
19165;SDS011;9715;48.816;10.520;2022-07-29T00:47:46;3.38;;;2.20;;
19165;SDS011;9715;48.816;10.520;2022-07-29T00:50:14;2.33;;;2.13;;
19165;SDS011;9715;48.816;10.520;2022-07-29T00:52:43;2.45;;;2.20;;
19165;SDS011;9715;48.816;10.520;2022-07-29T00:55:13;2.17;;;1.98;;
19165;SDS011;9715;48.816;10.520;2022-07-29T00:57:43;2.85;;;2.22;;
19165;SDS011;9715;48.816;10.520;2022-07-29T01:00:12;2.50;;;2.30;;
19165;SDS011;9715;48.816;10.520;2022-07-29T01:02:43;2.80;;;2.08;;
19165;SDS011;9715;48.816;10.520;2022-07-29T01:05:14;2.50;;;1.77;;
19165;SDS011;9715;48.816;10.520;2022-07-29T01:07:45;2.92;;;2.25;;
19165;SDS011;9715;48.816;10.520;2022-07-29T01:10:17;2.30;;;2.05;;
19165;SDS011;9715;48.816;10.520;2022-07-29T01:12:47;2.65;;;2.10;;
19165;SDS011;9715;48.816;10.520;2022-07-29T01:15:17;4.90;;;2.38;;
19165;SDS011;9715;48.816;10.520;2022-07-29T01:17:46;2.42;;;2.00;;
19165;SDS011;9715;48.816;10.520;2022-07-29T01:20:20;4.80;;;2.40;;
19165;SDS011;9715;48.816;10.520;2022-07-29T01:23:12;3.15;;;2.35;;
19165;SDS011;9715;48.816;10.520;2022-07-29T01:29:00;2.63;;;2.28;;
19165;SDS011;9715;48.816;10.520;2022-07-29T01:31:35;2.90;;;2.20;;
19165;SDS011;9715;48.816;10.520;2022-07-29T01:34:27;2.70;;;2.20;;
19165;SDS011;9715;48.816;10.520;2022-07-29T01:37:01;3.78;;;2.30;;
19165;SDS011;9715;48.816;10.520;2022-07-29T01:39:35;2.67;;;2.40;;
19165;SDS011;9715;48.816;10.520;2022-07-29T01:42:06;4.63;;;2.70;;
19165;SDS011;9715;48.816;10.520;2022-07-29T01:44:41;4.15;;;2.78;;
19165;SDS011;9715;48.816;10.520;2022-07-29T01:47:17;3.05;;;2.65;;
19165;SDS011;9715;48.816;10.520;2022-07-29T01:49:49;3.63;;;2.30;;
19165;SDS011;9715;48.816;10.520;2022-07-29T01:52:21;2.47;;;2.22;;
19165;SDS011;9715;48.816;10.520;2022-07-29T01:54:55;5.85;;;2.47;;
19165;SDS011;9715;48.816;10.520;2022-07-29T01:57:27;3.63;;;2.58;;
19165;SDS011;9715;48.816;10.520;2022-07-29T01:59:59;3.40;;;2.47;;
19165;SDS011;9715;48.816;10.520;2022-07-29T02:02:31;2.75;;;2.53;;
19165;SDS011;9715;48.816;10.520;2022-07-29T02:05:02;2.85;;;2.50;;
19165;SDS011;9715;48.816;10.520;2022-07-29T02:07:31;5.03;;;2.70;;
19165;SDS011;9715;48.816;10.520;2022-07-29T02:10:01;5.22;;;2.70;;
19165;SDS011;9715;48.816;10.520;2022-07-29T02:12:31;4.15;;;2.65;;
19165;SDS011;9715;48.816;10.520;2022-07-29T02:15:03;3.20;;;2.60;;
19165;SDS011;9715;48.816;10.520;2022-07-29T02:17:46;3.33;;;2.42;;
19165;SDS011;9715;48.816;10.520;2022-07-29T02:20:17;2.72;;;2.53;;
19165;SDS011;9715;48.816;10.520;2022-07-29T02:22:45;3.88;;;2.67;;
19165;SDS011;9715;48.816;10.520;2022-07-29T02:25:15;4.30;;;2.75;;
19165;SDS011;9715;48.816;10.520;2022-07-29T02:27:45;3.58;;;2.75;;
19165;SDS011;9715;48.816;10.520;2022-07-29T02:30:16;3.25;;;2.50;;
19165;SDS011;9715;48.816;10.520;2022-07-29T02:32:45;2.67;;;2.47;;
19165;SDS011;9715;48.816;10.520;2022-07-29T02:35:15;3.63;;;2.67;;
19165;SDS011;9715;48.816;10.520;2022-07-29T02:37:44;4.47;;;2.75;;
19165;SDS011;9715;48.816;10.520;2022-07-29T02:40:34;4.55;;;2.70;;
19165;SDS011;9715;48.816;10.520;2022-07-29T02:43:05;4.93;;;2.78;;
19165;SDS011;9715;48.816;10.520;2022-07-29T02:45:36;3.58;;;2.90;;
19165;SDS011;9715;48.816;10.520;2022-07-29T02:48:05;4.05;;;2.80;;
19165;SDS011;9715;48.816;10.520;2022-07-29T02:50:38;3.35;;;2.80;;
19165;SDS011;9715;48.816;10.520;2022-07-29T02:53:12;3.63;;;2.70;;
19165;SDS011;9715;48.816;10.520;2022-07-29T02:55:45;3.40;;;2.97;;
19165;SDS011;9715;48.816;10.520;2022-07-29T02:58:19;4.28;;;2.70;;
19165;SDS011;9715;48.816;10.520;2022-07-29T03:00:56;4.47;;;2.95;;
19165;SDS011;9715;48.816;10.520;2022-07-29T03:03:27;4.00;;;3.13;;
19165;SDS011;9715;48.816;10.520;2022-07-29T03:05:59;3.00;;;2.78;;
19165;SDS011;9715;48.816;10.520;2022-07-29T03:08:28;2.72;;;2.53;;
19165;SDS011;9715;48.816;10.520;2022-07-29T03:10:57;3.10;;;2.80;;
19165;SDS011;9715;48.816;10.520;2022-07-29T03:13:26;4.50;;;3.00;;
19165;SDS011;9715;48.816;10.520;2022-07-29T03:15:57;3.15;;;2.85;;
19165;SDS011;9715;48.816;10.520;2022-07-29T03:18:26;4.65;;;2.78;;
19165;SDS011;9715;48.816;10.520;2022-07-29T03:20:55;3.35;;;2.72;;
19165;SDS011;9715;48.816;10.520;2022-07-29T03:23:23;3.10;;;2.80;;
19165;SDS011;9715;48.816;10.520;2022-07-29T03:26:00;4.40;;;2.85;;
19165;SDS011;9715;48.816;10.520;2022-07-29T03:28:28;4.90;;;3.33;;
19165;SDS011;9715;48.816;10.520;2022-07-29T03:30:59;3.30;;;2.97;;
19165;SDS011;9715;48.816;10.520;2022-07-29T03:33:27;3.55;;;2.95;;
19165;SDS011;9715;48.816;10.520;2022-07-29T03:35:56;3.83;;;2.65;;
19165;SDS011;9715;48.816;10.520;2022-07-29T03:38:25;4.47;;;2.85;;
19165;SDS011;9715;48.816;10.520;2022-07-29T03:40:57;4.15;;;2.65;;
19165;SDS011;9715;48.816;10.520;2022-07-29T03:43:28;3.22;;;2.88;;
19165;SDS011;9715;48.816;10.520;2022-07-29T03:46:00;4.03;;;3.55;;
19165;SDS011;9715;48.816;10.520;2022-07-29T03:48:34;3.83;;;2.97;;
19165;SDS011;9715;48.816;10.520;2022-07-29T03:51:04;3.33;;;3.03;;
19165;SDS011;9715;48.816;10.520;2022-07-29T03:53:32;2.95;;;2.70;;
19165;SDS011;9715;48.816;10.520;2022-07-29T03:56:02;4.20;;;3.30;;
19165;SDS011;9715;48.816;10.520;2022-07-29T03:58:32;4.53;;;2.85;;
19165;SDS011;9715;48.816;10.520;2022-07-29T04:01:02;4.35;;;3.00;;
19165;SDS011;9715;48.816;10.520;2022-07-29T04:03:30;6.22;;;2.92;;
19165;SDS011;9715;48.816;10.520;2022-07-29T04:06:00;3.42;;;2.60;;
19165;SDS011;9715;48.816;10.520;2022-07-29T04:08:29;3.88;;;3.25;;
19165;SDS011;9715;48.816;10.520;2022-07-29T04:10:57;4.93;;;3.13;;
19165;SDS011;9715;48.816;10.520;2022-07-29T04:13:25;3.92;;;3.30;;
19165;SDS011;9715;48.816;10.520;2022-07-29T04:15:53;4.78;;;3.28;;
19165;SDS011;9715;48.816;10.520;2022-07-29T04:18:23;5.35;;;3.83;;
19165;SDS011;9715;48.816;10.520;2022-07-29T04:20:51;4.25;;;3.20;;
19165;SDS011;9715;48.816;10.520;2022-07-29T04:23:19;5.28;;;3.50;;
19165;SDS011;9715;48.816;10.520;2022-07-29T04:25:47;3.30;;;2.83;;
19165;SDS011;9715;48.816;10.520;2022-07-29T04:28:15;7.75;;;3.50;;
19165;SDS011;9715;48.816;10.520;2022-07-29T04:30:43;5.18;;;3.22;;
19165;SDS011;9715;48.816;10.520;2022-07-29T04:33:11;4.97;;;3.33;;
19165;SDS011;9715;48.816;10.520;2022-07-29T04:35:40;3.38;;;3.08;;
19165;SDS011;9715;48.816;10.520;2022-07-29T04:38:17;4.53;;;3.08;;
19165;SDS011;9715;48.816;10.520;2022-07-29T04:40:45;3.97;;;3.17;;
19165;SDS011;9715;48.816;10.520;2022-07-29T04:43:15;3.85;;;3.13;;
19165;SDS011;9715;48.816;10.520;2022-07-29T04:45:48;3.80;;;3.00;;
19165;SDS011;9715;48.816;10.520;2022-07-29T04:48:16;3.95;;;3.20;;
19165;SDS011;9715;48.816;10.520;2022-07-29T04:50:46;3.20;;;2.90;;
19165;SDS011;9715;48.816;10.520;2022-07-29T04:53:14;5.13;;;2.78;;
19165;SDS011;9715;48.816;10.520;2022-07-29T04:55:42;4.43;;;3.40;;
19165;SDS011;9715;48.816;10.520;2022-07-29T04:58:10;2.70;;;2.50;;
19165;SDS011;9715;48.816;10.520;2022-07-29T05:00:39;3.40;;;3.10;;
19165;SDS011;9715;48.816;10.520;2022-07-29T05:03:07;4.80;;;2.97;;
19165;SDS011;9715;48.816;10.520;2022-07-29T05:05:36;4.40;;;3.05;;
19165;SDS011;9715;48.816;10.520;2022-07-29T05:08:05;3.20;;;2.90;;
19165;SDS011;9715;48.816;10.520;2022-07-29T05:10:33;3.08;;;2.80;;
19165;SDS011;9715;48.816;10.520;2022-07-29T05:13:04;4.18;;;3.00;;
19165;SDS011;9715;48.816;10.520;2022-07-29T05:15:33;3.78;;;2.90;;
19165;SDS011;9715;48.816;10.520;2022-07-29T05:18:01;3.17;;;2.88;;
19165;SDS011;9715;48.816;10.520;2022-07-29T05:20:30;3.80;;;3.25;;
19165;SDS011;9715;48.816;10.520;2022-07-29T05:22:59;2.90;;;2.60;;
19165;SDS011;9715;48.816;10.520;2022-07-29T05:25:30;5.18;;;2.85;;
19165;SDS011;9715;48.816;10.520;2022-07-29T05:28:09;3.08;;;2.78;;
19165;SDS011;9715;48.816;10.520;2022-07-29T05:30:37;3.10;;;2.80;;
19165;SDS011;9715;48.816;10.520;2022-07-29T05:33:06;3.60;;;2.75;;
19165;SDS011;9715;48.816;10.520;2022-07-29T05:35:54;3.45;;;3.15;;
19165;SDS011;9715;48.816;10.520;2022-07-29T05:38:26;5.53;;;3.38;;
19165;SDS011;9715;48.816;10.520;2022-07-29T05:40:57;3.60;;;3.03;;
19165;SDS011;9715;48.816;10.520;2022-07-29T05:43:26;4.43;;;3.20;;
19165;SDS011;9715;48.816;10.520;2022-07-29T05:45:54;5.85;;;3.55;;
19165;SDS011;9715;48.816;10.520;2022-07-29T05:48:22;4.47;;;3.80;;
19165;SDS011;9715;48.816;10.520;2022-07-29T05:50:50;6.53;;;3.50;;
19165;SDS011;9715;48.816;10.520;2022-07-29T05:53:18;4.72;;;3.70;;
19165;SDS011;9715;48.816;10.520;2022-07-29T05:55:47;6.95;;;3.28;;
19165;SDS011;9715;48.816;10.520;2022-07-29T05:58:16;4.65;;;3.53;;
19165;SDS011;9715;48.816;10.520;2022-07-29T06:00:45;5.20;;;4.60;;
19165;SDS011;9715;48.816;10.520;2022-07-29T06:03:13;4.70;;;3.88;;
19165;SDS011;9715;48.816;10.520;2022-07-29T06:05:41;5.32;;;4.20;;
19165;SDS011;9715;48.816;10.520;2022-07-29T06:08:09;5.97;;;3.25;;
19165;SDS011;9715;48.816;10.520;2022-07-29T06:10:37;4.50;;;3.67;;
19165;SDS011;9715;48.816;10.520;2022-07-29T06:13:05;5.20;;;3.75;;
19165;SDS011;9715;48.816;10.520;2022-07-29T06:15:34;3.97;;;3.67;;
19165;SDS011;9715;48.816;10.520;2022-07-29T06:18:02;4.82;;;3.50;;
19165;SDS011;9715;48.816;10.520;2022-07-29T06:20:34;5.85;;;3.72;;
19165;SDS011;9715;48.816;10.520;2022-07-29T06:23:02;7.05;;;3.72;;
19165;SDS011;9715;48.816;10.520;2022-07-29T06:25:31;6.72;;;4.18;;
19165;SDS011;9715;48.816;10.520;2022-07-29T06:28:00;4.13;;;3.42;;
19165;SDS011;9715;48.816;10.520;2022-07-29T06:30:29;8.55;;;3.78;;
19165;SDS011;9715;48.816;10.520;2022-07-29T06:32:58;3.60;;;3.30;;
19165;SDS011;9715;48.816;10.520;2022-07-29T06:35:28;3.80;;;3.38;;
19165;SDS011;9715;48.816;10.520;2022-07-29T06:38:07;4.20;;;3.70;;
19165;SDS011;9715;48.816;10.520;2022-07-29T06:40:55;4.38;;;3.15;;
19165;SDS011;9715;48.816;10.520;2022-07-29T06:43:34;3.25;;;2.95;;
19165;SDS011;9715;48.816;10.520;2022-07-29T06:46:16;4.65;;;3.05;;
19165;SDS011;9715;48.816;10.520;2022-07-29T06:48:47;4.20;;;3.05;;
19165;SDS011;9715;48.816;10.520;2022-07-29T06:51:16;3.53;;;2.88;;
19165;SDS011;9715;48.816;10.520;2022-07-29T06:53:48;4.65;;;2.72;;
19165;SDS011;9715;48.816;10.520;2022-07-29T06:56:28;4.78;;;2.72;;
19165;SDS011;9715;48.816;10.520;2022-07-29T06:59:03;6.15;;;3.00;;
19165;SDS011;9715;48.816;10.520;2022-07-29T07:01:31;3.35;;;2.95;;
19165;SDS011;9715;48.816;10.520;2022-07-29T07:04:01;5.13;;;2.80;;
19165;SDS011;9715;48.816;10.520;2022-07-29T07:06:29;4.82;;;2.72;;
19165;SDS011;9715;48.816;10.520;2022-07-29T07:08:57;4.05;;;2.72;;
19165;SDS011;9715;48.816;10.520;2022-07-29T07:11:25;4.57;;;3.17;;
19165;SDS011;9715;48.816;10.520;2022-07-29T07:13:53;3.30;;;2.97;;
19165;SDS011;9715;48.816;10.520;2022-07-29T07:16:28;3.88;;;2.90;;
19165;SDS011;9715;48.816;10.520;2022-07-29T07:18:56;3.90;;;2.78;;
19165;SDS011;9715;48.816;10.520;2022-07-29T07:21:25;3.10;;;2.67;;
19165;SDS011;9715;48.816;10.520;2022-07-29T07:23:56;3.25;;;2.88;;
19165;SDS011;9715;48.816;10.520;2022-07-29T07:26:24;3.65;;;2.80;;
19165;SDS011;9715;48.816;10.520;2022-07-29T07:28:52;3.42;;;3.05;;
19165;SDS011;9715;48.816;10.520;2022-07-29T07:31:20;2.72;;;2.22;;
19165;SDS011;9715;48.816;10.520;2022-07-29T07:33:48;4.15;;;2.90;;
19165;SDS011;9715;48.816;10.520;2022-07-29T07:36:17;3.80;;;3.13;;
19165;SDS011;9715;48.816;10.520;2022-07-29T07:38:47;5.78;;;3.15;;
19165;SDS011;9715;48.816;10.520;2022-07-29T07:41:15;4.05;;;3.20;;
19165;SDS011;9715;48.816;10.520;2022-07-29T07:43:43;4.57;;;3.30;;
19165;SDS011;9715;48.816;10.520;2022-07-29T07:46:11;4.72;;;3.30;;
19165;SDS011;9715;48.816;10.520;2022-07-29T07:48:39;4.72;;;3.35;;
19165;SDS011;9715;48.816;10.520;2022-07-29T07:51:07;4.85;;;3.25;;
19165;SDS011;9715;48.816;10.520;2022-07-29T07:53:35;5.47;;;3.38;;
19165;SDS011;9715;48.816;10.520;2022-07-29T07:56:05;3.28;;;2.97;;
19165;SDS011;9715;48.816;10.520;2022-07-29T07:58:36;6.28;;;3.78;;
19165;SDS011;9715;48.816;10.520;2022-07-29T08:01:05;6.57;;;3.80;;
19165;SDS011;9715;48.816;10.520;2022-07-29T08:03:33;6.45;;;4.18;;
19165;SDS011;9715;48.816;10.520;2022-07-29T08:06:01;6.25;;;3.60;;
19165;SDS011;9715;48.816;10.520;2022-07-29T08:08:30;5.60;;;3.83;;
19165;SDS011;9715;48.816;10.520;2022-07-29T08:10:58;6.18;;;3.70;;
19165;SDS011;9715;48.816;10.520;2022-07-29T08:13:35;5.00;;;3.97;;
19165;SDS011;9715;48.816;10.520;2022-07-29T08:16:05;4.28;;;3.88;;
19165;SDS011;9715;48.816;10.520;2022-07-29T08:18:39;4.40;;;3.47;;
19165;SDS011;9715;48.816;10.520;2022-07-29T08:21:09;3.97;;;3.40;;
19165;SDS011;9715;48.816;10.520;2022-07-29T08:23:40;6.32;;;3.45;;
19165;SDS011;9715;48.816;10.520;2022-07-29T08:26:25;4.50;;;3.78;;
19165;SDS011;9715;48.816;10.520;2022-07-29T08:28:54;5.88;;;4.25;;
19165;SDS011;9715;48.816;10.520;2022-07-29T08:31:22;4.22;;;3.50;;
19165;SDS011;9715;48.816;10.520;2022-07-29T08:33:51;4.78;;;3.70;;
19165;SDS011;9715;48.816;10.520;2022-07-29T08:36:19;4.72;;;3.90;;
19165;SDS011;9715;48.816;10.520;2022-07-29T08:38:48;4.05;;;3.10;;
19165;SDS011;9715;48.816;10.520;2022-07-29T08:41:17;4.18;;;3.58;;
19165;SDS011;9715;48.816;10.520;2022-07-29T08:43:46;4.57;;;3.50;;
19165;SDS011;9715;48.816;10.520;2022-07-29T08:46:15;3.30;;;3.03;;
19165;SDS011;9715;48.816;10.520;2022-07-29T08:48:44;3.70;;;3.40;;
19165;SDS011;9715;48.816;10.520;2022-07-29T08:51:13;4.22;;;3.70;;
19165;SDS011;9715;48.816;10.520;2022-07-29T08:53:42;4.80;;;3.15;;
19165;SDS011;9715;48.816;10.520;2022-07-29T08:56:12;3.55;;;2.95;;
19165;SDS011;9715;48.816;10.520;2022-07-29T08:58:40;5.63;;;2.70;;
19165;SDS011;9715;48.816;10.520;2022-07-29T09:01:21;3.75;;;3.30;;
19165;SDS011;9715;48.816;10.520;2022-07-29T09:04:03;5.47;;;2.60;;
19165;SDS011;9715;48.816;10.520;2022-07-29T09:06:34;2.70;;;2.50;;
19165;SDS011;9715;48.816;10.520;2022-07-29T09:09:04;4.47;;;3.17;;
19165;SDS011;9715;48.816;10.520;2022-07-29T09:11:34;3.75;;;2.75;;
19165;SDS011;9715;48.816;10.520;2022-07-29T09:14:02;5.13;;;3.42;;
19165;SDS011;9715;48.816;10.520;2022-07-29T09:16:53;5.00;;;2.97;;
19165;SDS011;9715;48.816;10.520;2022-07-29T09:19:25;3.58;;;2.80;;
19165;SDS011;9715;48.816;10.520;2022-07-29T09:21:55;3.05;;;2.60;;
19165;SDS011;9715;48.816;10.520;2022-07-29T09:24:36;2.97;;;2.60;;
19165;SDS011;9715;48.816;10.520;2022-07-29T09:27:10;3.75;;;2.60;;
19165;SDS011;9715;48.816;10.520;2022-07-29T09:29:46;3.95;;;2.58;;
19165;SDS011;9715;48.816;10.520;2022-07-29T09:32:16;3.22;;;2.58;;
19165;SDS011;9715;48.816;10.520;2022-07-29T09:34:44;3.05;;;2.35;;
19165;SDS011;9715;48.816;10.520;2022-07-29T09:37:12;2.50;;;2.25;;
19165;SDS011;9715;48.816;10.520;2022-07-29T09:39:53;3.28;;;2.50;;
19165;SDS011;9715;48.816;10.520;2022-07-29T09:42:27;3.53;;;2.20;;
19165;SDS011;9715;48.816;10.520;2022-07-29T09:44:55;2.92;;;2.22;;
19165;SDS011;9715;48.816;10.520;2022-07-29T09:47:25;5.22;;;2.33;;
19165;SDS011;9715;48.816;10.520;2022-07-29T09:50:08;2.97;;;2.60;;
19165;SDS011;9715;48.816;10.520;2022-07-29T09:52:44;4.45;;;2.78;;
19165;SDS011;9715;48.816;10.520;2022-07-29T09:55:13;3.20;;;2.50;;
19165;SDS011;9715;48.816;10.520;2022-07-29T09:57:45;4.95;;;3.03;;
19165;SDS011;9715;48.816;10.520;2022-07-29T10:00:15;5.55;;;2.88;;
19165;SDS011;9715;48.816;10.520;2022-07-29T10:02:46;4.00;;;2.72;;
19165;SDS011;9715;48.816;10.520;2022-07-29T10:05:18;3.67;;;2.60;;
19165;SDS011;9715;48.816;10.520;2022-07-29T10:07:49;6.45;;;2.67;;
19165;SDS011;9715;48.816;10.520;2022-07-29T10:10:23;3.15;;;2.70;;
19165;SDS011;9715;48.816;10.520;2022-07-29T10:12:53;4.20;;;2.90;;
19165;SDS011;9715;48.816;10.520;2022-07-29T10:15:27;4.90;;;2.63;;
19165;SDS011;9715;48.816;10.520;2022-07-29T10:17:59;3.92;;;2.80;;
19165;SDS011;9715;48.816;10.520;2022-07-29T10:20:27;2.80;;;2.60;;
19165;SDS011;9715;48.816;10.520;2022-07-29T10:22:55;2.80;;;2.60;;
19165;SDS011;9715;48.816;10.520;2022-07-29T10:25:24;5.30;;;2.60;;
19165;SDS011;9715;48.816;10.520;2022-07-29T10:27:55;3.72;;;2.40;;
19165;SDS011;9715;48.816;10.520;2022-07-29T10:30:24;3.88;;;2.33;;
19165;SDS011;9715;48.816;10.520;2022-07-29T10:33:05;2.50;;;2.30;;
19165;SDS011;9715;48.816;10.520;2022-07-29T10:38:44;3.10;;;2.20;;
19165;SDS011;9715;48.816;10.520;2022-07-29T10:41:31;3.55;;;2.50;;
19165;SDS011;9715;48.816;10.520;2022-07-29T10:44:12;5.55;;;2.40;;
19165;SDS011;9715;48.816;10.520;2022-07-29T10:46:48;2.67;;;2.47;;
19165;SDS011;9715;48.816;10.520;2022-07-29T10:49:18;4.97;;;2.88;;
19165;SDS011;9715;48.816;10.520;2022-07-29T10:51:51;2.90;;;2.63;;
19165;SDS011;9715;48.816;10.520;2022-07-29T10:54:38;4.30;;;2.58;;
19165;SDS011;9715;48.816;10.520;2022-07-29T10:57:12;3.45;;;2.40;;
19165;SDS011;9715;48.816;10.520;2022-07-29T10:59:42;4.90;;;2.70;;
19165;SDS011;9715;48.816;10.520;2022-07-29T11:05:14;9.00;;;2.78;;
19165;SDS011;9715;48.816;10.520;2022-07-29T11:10:53;3.85;;;2.88;;
19165;SDS011;9715;48.816;10.520;2022-07-29T11:14:03;3.75;;;2.80;;
19165;SDS011;9715;48.816;10.520;2022-07-29T11:19:31;3.08;;;2.78;;
19165;SDS011;9715;48.816;10.520;2022-07-29T11:22:02;4.78;;;3.30;;
19165;SDS011;9715;48.816;10.520;2022-07-29T11:24:34;5.22;;;3.10;;
19165;SDS011;9715;48.816;10.520;2022-07-29T11:27:16;5.10;;;3.00;;
19165;SDS011;9715;48.816;10.520;2022-07-29T11:29:50;5.65;;;3.20;;
19165;SDS011;9715;48.816;10.520;2022-07-29T11:32:21;5.22;;;2.60;;
19165;SDS011;9715;48.816;10.520;2022-07-29T11:37:45;3.35;;;2.83;;
19165;SDS011;9715;48.816;10.520;2022-07-29T11:40:20;5.15;;;3.40;;
19165;SDS011;9715;48.816;10.520;2022-07-29T11:42:49;4.10;;;3.00;;
19165;SDS011;9715;48.816;10.520;2022-07-29T11:45:24;5.22;;;3.28;;
19165;SDS011;9715;48.816;10.520;2022-07-29T11:48:14;7.15;;;3.22;;
19165;SDS011;9715;48.816;10.520;2022-07-29T11:50:58;5.25;;;3.40;;
19165;SDS011;9715;48.816;10.520;2022-07-29T11:53:29;5.95;;;3.63;;
19165;SDS011;9715;48.816;10.520;2022-07-29T11:55:59;8.45;;;3.88;;
19165;SDS011;9715;48.816;10.520;2022-07-29T11:58:29;5.15;;;3.50;;
19165;SDS011;9715;48.816;10.520;2022-07-29T12:00:57;5.43;;;3.72;;
19165;SDS011;9715;48.816;10.520;2022-07-29T12:03:30;5.35;;;3.75;;
19165;SDS011;9715;48.816;10.520;2022-07-29T12:06:02;9.63;;;3.70;;
19165;SDS011;9715;48.816;10.520;2022-07-29T12:08:38;6.88;;;4.30;;
19165;SDS011;9715;48.816;10.520;2022-07-29T12:11:14;10.30;;;4.43;;
19165;SDS011;9715;48.816;10.520;2022-07-29T12:13:46;7.15;;;4.45;;
19165;SDS011;9715;48.816;10.520;2022-07-29T12:16:15;10.23;;;4.65;;
19165;SDS011;9715;48.816;10.520;2022-07-29T12:18:56;10.57;;;4.90;;
19165;SDS011;9715;48.816;10.520;2022-07-29T12:21:27;6.57;;;5.00;;
19165;SDS011;9715;48.816;10.520;2022-07-29T12:23:57;6.25;;;4.95;;
19165;SDS011;9715;48.816;10.520;2022-07-29T12:26:34;7.68;;;4.97;;
19165;SDS011;9715;48.816;10.520;2022-07-29T12:29:02;6.18;;;5.05;;
19165;SDS011;9715;48.816;10.520;2022-07-29T12:31:36;7.38;;;5.38;;
19165;SDS011;9715;48.816;10.520;2022-07-29T12:34:10;7.22;;;4.70;;
19165;SDS011;9715;48.816;10.520;2022-07-29T12:36:38;8.45;;;5.05;;
19165;SDS011;9715;48.816;10.520;2022-07-29T12:39:09;9.70;;;4.95;;
19165;SDS011;9715;48.816;10.520;2022-07-29T12:41:38;9.18;;;5.00;;
19165;SDS011;9715;48.816;10.520;2022-07-29T12:44:06;6.50;;;4.20;;
19165;SDS011;9715;48.816;10.520;2022-07-29T12:46:34;5.63;;;4.40;;
19165;SDS011;9715;48.816;10.520;2022-07-29T12:49:04;5.03;;;3.95;;
19165;SDS011;9715;48.816;10.520;2022-07-29T12:51:33;6.55;;;4.10;;
19165;SDS011;9715;48.816;10.520;2022-07-29T12:54:04;4.90;;;3.85;;
19165;SDS011;9715;48.816;10.520;2022-07-29T12:56:35;6.70;;;3.83;;
19165;SDS011;9715;48.816;10.520;2022-07-29T12:59:11;4.63;;;3.65;;
19165;SDS011;9715;48.816;10.520;2022-07-29T13:01:40;4.93;;;3.58;;
19165;SDS011;9715;48.816;10.520;2022-07-29T13:04:09;3.15;;;2.85;;
19165;SDS011;9715;48.816;10.520;2022-07-29T13:06:38;4.22;;;2.95;;
19165;SDS011;9715;48.816;10.520;2022-07-29T13:09:11;4.85;;;3.10;;
19165;SDS011;9715;48.816;10.520;2022-07-29T13:11:43;5.78;;;3.40;;
19165;SDS011;9715;48.816;10.520;2022-07-29T13:14:14;5.65;;;3.42;;
19165;SDS011;9715;48.816;10.520;2022-07-29T13:17:00;5.80;;;3.40;;
19165;SDS011;9715;48.816;10.520;2022-07-29T13:19:32;5.03;;;3.67;;
19165;SDS011;9715;48.816;10.520;2022-07-29T13:22:06;5.15;;;3.63;;
19165;SDS011;9715;48.816;10.520;2022-07-29T13:24:46;3.30;;;3.00;;
19165;SDS011;9715;48.816;10.520;2022-07-29T13:27:16;4.60;;;2.90;;
19165;SDS011;9715;48.816;10.520;2022-07-29T13:29:45;5.47;;;2.90;;
19165;SDS011;9715;48.816;10.520;2022-07-29T13:32:14;3.78;;;2.65;;
19165;SDS011;9715;48.816;10.520;2022-07-29T13:34:42;4.35;;;2.60;;
19165;SDS011;9715;48.816;10.520;2022-07-29T13:37:10;3.50;;;3.00;;
19165;SDS011;9715;48.816;10.520;2022-07-29T13:39:38;5.47;;;2.83;;
19165;SDS011;9715;48.816;10.520;2022-07-29T13:42:19;5.30;;;3.30;;
19165;SDS011;9715;48.816;10.520;2022-07-29T13:44:47;5.00;;;3.05;;
19165;SDS011;9715;48.816;10.520;2022-07-29T13:47:17;5.55;;;3.30;;
19165;SDS011;9715;48.816;10.520;2022-07-29T13:49:45;4.22;;;2.80;;
19165;SDS011;9715;48.816;10.520;2022-07-29T13:52:13;3.42;;;2.63;;
19165;SDS011;9715;48.816;10.520;2022-07-29T13:54:41;4.63;;;3.25;;
19165;SDS011;9715;48.816;10.520;2022-07-29T13:57:10;4.50;;;2.80;;
19165;SDS011;9715;48.816;10.520;2022-07-29T13:59:40;3.38;;;3.05;;
19165;SDS011;9715;48.816;10.520;2022-07-29T14:02:09;5.05;;;3.00;;
19165;SDS011;9715;48.816;10.520;2022-07-29T14:04:40;4.85;;;2.92;;
19165;SDS011;9715;48.816;10.520;2022-07-29T14:07:09;5.90;;;3.05;;
19165;SDS011;9715;48.816;10.520;2022-07-29T14:09:41;4.85;;;3.03;;
19165;SDS011;9715;48.816;10.520;2022-07-29T14:12:09;3.63;;;2.95;;
19165;SDS011;9715;48.816;10.520;2022-07-29T14:14:38;3.80;;;2.70;;
19165;SDS011;9715;48.816;10.520;2022-07-29T14:17:08;4.63;;;2.78;;
19165;SDS011;9715;48.816;10.520;2022-07-29T14:19:36;3.97;;;2.78;;
19165;SDS011;9715;48.816;10.520;2022-07-29T14:22:05;3.95;;;2.78;;
19165;SDS011;9715;48.816;10.520;2022-07-29T14:24:34;5.38;;;2.50;;
19165;SDS011;9715;48.816;10.520;2022-07-29T14:27:03;4.95;;;2.60;;
19165;SDS011;9715;48.816;10.520;2022-07-29T14:29:32;2.47;;;2.25;;
19165;SDS011;9715;48.816;10.520;2022-07-29T14:32:05;4.28;;;2.50;;
19165;SDS011;9715;48.816;10.520;2022-07-29T14:34:34;3.05;;;2.10;;
19165;SDS011;9715;48.816;10.520;2022-07-29T14:37:02;3.17;;;2.28;;
19165;SDS011;9715;48.816;10.520;2022-07-29T14:39:32;3.45;;;2.28;;
19165;SDS011;9715;48.816;10.520;2022-07-29T14:42:08;2.58;;;1.92;;
19165;SDS011;9715;48.816;10.520;2022-07-29T14:44:38;2.97;;;2.00;;
19165;SDS011;9715;48.816;10.520;2022-07-29T14:47:08;4.53;;;1.92;;
19165;SDS011;9715;48.816;10.520;2022-07-29T14:49:36;3.67;;;2.20;;
19165;SDS011;9715;48.816;10.520;2022-07-29T14:52:04;3.08;;;2.10;;
19165;SDS011;9715;48.816;10.520;2022-07-29T14:54:33;3.55;;;2.25;;
19165;SDS011;9715;48.816;10.520;2022-07-29T14:57:01;4.03;;;2.38;;
19165;SDS011;9715;48.816;10.520;2022-07-29T14:59:29;2.33;;;1.90;;
19165;SDS011;9715;48.816;10.520;2022-07-29T15:01:57;3.90;;;2.47;;
19165;SDS011;9715;48.816;10.520;2022-07-29T15:04:26;4.35;;;2.10;;
19165;SDS011;9715;48.816;10.520;2022-07-29T15:06:54;2.60;;;2.00;;
19165;SDS011;9715;48.816;10.520;2022-07-29T15:09:22;4.10;;;1.90;;
19165;SDS011;9715;48.816;10.520;2022-07-29T15:11:51;2.90;;;2.30;;
19165;SDS011;9715;48.816;10.520;2022-07-29T15:14:19;2.97;;;2.30;;
19165;SDS011;9715;48.816;10.520;2022-07-29T15:16:46;3.53;;;2.20;;
19165;SDS011;9715;48.816;10.520;2022-07-29T15:19:17;3.22;;;2.30;;
19165;SDS011;9715;48.816;10.520;2022-07-29T15:21:47;3.55;;;3.25;;
19165;SDS011;9715;48.816;10.520;2022-07-29T15:24:16;3.97;;;3.55;;
19165;SDS011;9715;48.816;10.520;2022-07-29T15:26:45;6.90;;;3.08;;
19165;SDS011;9715;48.816;10.520;2022-07-29T15:29:14;6.07;;;3.70;;